Main page
METAR-TAF:

METAR-TAF

Airports :

Maharana Pratap Airport

Udaipur, India

latitude: 24-37-04N, longitude: 73-53-46E, elevation: 513 m

Current weather observation

The report was made 6 hours and 34 minutes ago, at 14:00 UTC
Wind 5 kt from the West
Temperature 21°C
Humidity 35%
Pressure 1012 hPa
Visibility: 6000 m

METAR: VAUD 201400Z 27005KT 6000 NSC 21/05 Q1012 NOSIG

Time: 02:04 (20:34 UTC)

Forecast

The report was made 9 hours and 34 minutes ago, at 11:00 UTC
Forecast valid from 20 at 12 UTC to 20 at 21 UTC
Wind 5 kt from the West/Southwest
Visibility: 3000 m
haze

TAF: VAUD 201100Z 2012/2021 25005KT 3000 HZ NSC

Weather observations and forecasts of more than 4000 airports (METAR and TAF reports).

The available stations are represented by yellow and red dots on the map.

Hover mouse over dot to see the name of the station.

Then click to see weather observations and forecasts.

To change the map : click on the green buttons with a black cross to zoom in, on the green button with a dash to zoom out, or on the green arrows for adjacent maps.


METAR-TAF: